Time;durP1;ratioP1;P1;durP2;ratioP2;P2;SDS_P1;SDS_P2;PMS_P1;PMS_P2;Temp;Humidity;BMP_temperature;BMP_pressure;BME280_temperature;BME280_humidity;BME280_pressure;Samples;Min_cycle;Max_cycle;Signal;HPM_P1;HPM_P2
2021/07/12 00:02:02;;;;;;;;;4.75;4.50;;;;;21.96;51.18;100648.75;5100819;27;46444;-59
2021/07/12 00:04:28;;;;;;;;;6.00;5.25;;;;;21.91;50.61;100635.66;5100992;27;45445;-59
2021/07/12 00:06:53;;;;;;;;;5.50;5.00;;;;;21.88;50.67;100631.38;5100310;27;45458;-59
2021/07/12 00:09:18;;;;;;;;;5.75;5.75;;;;;21.84;50.64;100623.66;5100984;27;45232;-59
2021/07/12 00:11:44;;;;;;;;;4.00;4.00;;;;;21.80;50.98;100620.31;5100679;27;45337;-58
2021/07/12 00:14:09;;;;;;;;;7.00;6.00;;;;;21.78;51.09;100624.06;5101070;27;45222;-59
2021/07/12 00:16:35;;;;;;;;;7.50;6.00;;;;;21.73;51.10;100610.97;5100268;27;46037;-58
2021/07/12 00:19:00;;;;;;;;;5.00;5.00;;;;;21.67;51.35;100598.84;5100515;27;45299;-58
2021/07/12 00:21:26;;;;;;;;;6.75;5.75;;;;;21.67;51.31;100603.31;5100421;27;45454;-59
2021/07/12 00:23:51;;;;;;;;;3.50;3.50;;;;;21.62;51.44;100600.94;5100510;27;45497;-58
2021/07/12 00:26:17;;;;;;;;;5.25;4.50;;;;;21.59;51.21;100593.97;5100370;27;46091;-58
2021/07/12 00:28:42;;;;;;;;;7.25;6.00;;;;;21.54;51.61;100579.16;5100501;27;45259;-58
2021/07/12 00:31:08;;;;;;;;;3.25;3.00;;;;;21.53;51.38;100580.09;5080336;27;45347;-58
2021/07/12 00:33:33;;;;;;;;;4.25;4.25;;;;;21.50;51.41;100572.28;5100574;27;45529;-59
2021/07/12 00:36:00;;;;;;;;;4.75;4.75;;;;;21.48;51.81;100572.38;5100027;27;47137;-58
2021/07/12 00:38:25;;;;;;;;;4.75;4.75;;;;;21.45;52.02;100572.56;5100519;27;45293;-58
2021/07/12 00:40:50;;;;;;;;;6.00;5.00;;;;;21.42;52.02;100570.06;5100357;27;45316;-58
2021/07/12 00:43:16;;;;;;;;;5.00;5.00;;;;;21.40;51.76;100566.66;5100336;27;45700;-58
2021/07/12 00:45:42;;;;;;;;;7.50;6.00;;;;;21.39;52.18;100594.31;5100333;27;45178;-58
2021/07/12 00:48:07;;;;;;;;;6.25;4.50;;;;;21.37;51.95;100615.81;5082137;27;45311;-58
2021/07/12 00:50:35;;;;;;;;;6.75;6.00;;;;;21.35;52.18;100619.53;5100388;27;45247;-58
2021/07/12 00:53:03;;;;;;;;;7.25;5.50;;;;;21.33;51.66;100613.41;5100206;27;45380;-58
2021/07/12 00:55:30;;;;;;;;;5.00;4.75;;;;;21.32;52.02;100617.91;5100080;27;45395;-58
2021/07/12 00:57:56;;;;;;;;;5.50;5.50;;;;;21.31;51.75;100624.19;5100186;27;45226;-58
2021/07/12 01:00:24;;;;;;;;;6.00;6.00;;;;;21.29;52.26;100626.09;5100119;27;45165;-58
2021/07/12 01:02:50;;;;;;;;;7.25;6.50;;;;;21.27;51.87;100620.00;5100054;27;45208;-58
2021/07/12 01:05:18;;;;;;;;;5.75;5.75;;;;;21.24;52.32;100626.41;5099976;27;45313;-58
2021/07/12 01:07:44;;;;;;;;;6.25;5.75;;;;;21.22;52.00;100622.94;5101646;27;45327;-58
2021/07/12 01:10:11;;;;;;;;;6.50;5.00;;;;;21.21;51.72;100626.56;5103480;27;45196;-58
2021/07/12 01:12:39;;;;;;;;;6.00;5.00;;;;;21.20;52.04;100613.31;5085450;27;45173;-58
2021/07/12 01:15:10;;;;;;;;;9.75;6.50;;;;;21.18;52.47;100607.19;5085014;27;47363;-58
2021/07/12 01:18:08;;;;;;;;;6.00;6.00;;;;;21.17;52.48;100592.09;5085046;27;45285;-58
2021/07/12 01:20:44;;;;;;;;;5.75;5.75;;;;;21.16;52.37;100587.75;5059580;27;45417;-58
2021/07/12 01:23:21;;;;;;;;;5.50;5.50;;;;;21.14;52.32;100574.44;5082497;28;45245;-58
2021/07/12 01:26:07;;;;;;;;;6.00;6.00;;;;;21.13;52.47;100564.75;5082811;28;46203;-58
2021/07/12 01:28:57;;;;;;;;;8.50;4.25;;;;;21.11;52.04;100556.81;5082778;28;45330;-58
2021/07/12 01:31:50;;;;;;;;;6.00;4.75;;;;;21.10;52.57;100552.41;5082907;28;45239;-58
2021/07/12 01:34:26;;;;;;;;;4.75;3.75;;;;;21.09;52.09;100552.50;5082744;28;45247;-58
2021/07/12 01:36:59;;;;;;;;;4.00;4.00;;;;;21.09;52.16;100547.16;5082453;28;47213;-58
2021/07/12 01:39:33;;;;;;;;;6.50;5.50;;;;;21.08;52.50;100535.63;5082658;27;45387;-58
2021/07/12 01:42:06;;;;;;;;;5.75;4.25;;;;;21.08;52.26;100540.09;5082564;28;45410;-58
2021/07/12 01:44:55;;;;;;;;;5.00;5.00;;;;;21.06;52.36;100532.19;5077649;28;46344;-58
2021/07/12 01:47:28;;;;;;;;;5.00;5.00;;;;;21.06;52.36;100534.00;5076716;27;45247;-58
2021/07/12 01:50:04;;;;;;;;;4.00;4.00;;;;;21.05;52.60;100526.94;5082440;28;45392;-58
2021/07/12 01:52:40;;;;;;;;;4.50;4.50;;;;;21.04;52.61;100523.44;5082360;28;45231;-58
2021/07/12 01:55:08;;;;;;;;;5.75;5.75;;;;;21.03;52.86;100519.03;5082585;28;45404;-58
2021/07/12 01:57:42;;;;;;;;;6.00;4.50;;;;;21.03;52.49;100524.38;5082109;28;46279;-58
2021/07/12 02:00:11;;;;;;;;;5.50;4.75;;;;;21.02;53.15;100522.66;5082247;28;45247;-58
2021/07/12 02:02:41;;;;;;;;;5.00;5.00;;;;;21.01;52.70;100515.59;5081029;28;45336;-58
2021/07/12 02:05:29;;;;;;;;;5.00;5.00;;;;;21.01;53.19;100528.09;5082149;28;45437;-58
2021/07/12 02:07:55;;;;;;;;;5.00;5.00;;;;;21.00;52.80;100523.72;5097667;27;46352;-58
2021/07/12 02:10:26;;;;;;;;;5.25;5.00;;;;;20.99;53.28;100522.81;5081971;28;45402;-58
2021/07/12 02:12:53;;;;;;;;;6.25;4.00;;;;;20.99;52.62;100522.81;5082098;28;45193;-57
2021/07/12 02:15:19;;;;;;;;;4.00;4.00;;;;;21.00;52.70;100521.03;5081956;28;45236;-58
2021/07/12 02:17:49;;;;;;;;;6.00;4.75;;;;;21.01;53.25;100520.09;5081994;27;45224;-58
2021/07/12 02:20:16;;;;;;;;;5.25;4.50;;;;;20.99;53.17;100517.47;5080440;28;45380;-58
2021/07/12 02:22:43;;;;;;;;;5.25;4.50;;;;;21.00;52.97;100518.38;5081722;28;45173;-58
2021/07/12 02:25:12;;;;;;;;;4.75;4.75;;;;;21.01;53.23;100526.28;5081817;28;45161;-58
2021/07/12 02:27:38;;;;;;;;;4.00;4.00;;;;;21.04;53.21;100538.56;5081585;28;45920;-58
2021/07/12 02:30:06;;;;;;;;;3.25;3.25;;;;;21.03;53.26;100540.41;5081658;28;45339;-58
2021/07/12 02:32:34;;;;;;;;;4.75;4.00;;;;;21.03;53.37;100532.41;5082031;28;45240;-58
2021/07/12 02:35:00;;;;;;;;;5.00;5.00;;;;;21.05;52.93;100534.97;5081769;28;45231;-58
2021/07/12 02:37:28;;;;;;;;;5.75;4.50;;;;;21.03;52.92;100536.84;5081223;28;46161;-58
2021/07/12 02:39:55;;;;;;;;;6.00;6.00;;;;;21.04;53.02;100528.78;5081792;27;45462;-58
2021/07/12 02:42:23;;;;;;;;;4.00;4.00;;;;;21.05;53.20;100522.44;5081466;28;45417;-58
2021/07/12 02:44:51;;;;;;;;;4.00;4.00;;;;;21.06;52.82;100520.66;5081948;28;45171;-58
2021/07/12 02:47:16;;;;;;;;;3.00;3.00;;;;;21.06;52.71;100520.66;5079967;27;45399;-58
2021/07/12 02:49:44;;;;;;;;;3.00;3.00;;;;;21.07;53.54;100525.06;5081612;28;45404;-58
2021/07/12 02:52:19;;;;;;;;;3.75;3.75;;;;;21.08;52.83;100527.63;5077462;28;45458;-58
2021/07/12 02:54:47;;;;;;;;;4.00;4.00;;;;;21.09;53.49;100529.34;5081641;28;45468;-58
2021/07/12 02:57:13;;;;;;;;;4.00;4.00;;;;;21.08;53.32;100529.41;5081070;28;46062;-57
2021/07/12 02:59:38;;;;;;;;;5.25;4.25;;;;;21.10;53.43;100541.72;5081539;28;45288;-58
2021/07/12 03:02:04;;;;;;;;;5.00;5.00;;;;;21.10;53.54;100541.72;5081037;28;45247;-58
2021/07/12 03:04:29;;;;;;;;;3.00;3.00;;;;;21.09;53.30;100542.69;5081230;28;45199;-57
2021/07/12 03:06:58;;;;;;;;;5.00;5.00;;;;;21.07;53.51;100520.56;5080769;28;45344;-58
2021/07/12 03:09:32;;;;;;;;;3.75;3.75;;;;;21.10;53.38;100508.81;5081476;28;45322;-58
2021/07/12 03:12:08;;;;;;;;;3.25;3.25;;;;;21.10;53.19;100503.47;5081018;28;45345;-58
2021/07/12 03:14:47;;;;;;;;;5.50;4.25;;;;;21.09;53.67;100494.63;5081359;28;45525;-58
2021/07/12 03:17:17;;;;;;;;;7.00;7.00;;;;;21.09;53.80;100499.97;5081098;28;46214;-58
2021/07/12 03:19:45;;;;;;;;;4.00;4.00;;;;;21.09;53.13;100488.41;5076669;28;45360;-58
2021/07/12 03:22:12;;;;;;;;;4.00;4.00;;;;;21.08;53.21;100492.91;5080995;28;45350;-58
2021/07/12 03:24:40;;;;;;;;;3.25;3.25;;;;;21.06;53.88;100488.59;5077017;28;45903;-59
2021/07/12 03:27:10;;;;;;;;;4.25;4.00;;;;;21.07;53.60;100491.16;5080776;28;47214;-58
2021/07/12 03:29:37;;;;;;;;;5.00;5.00;;;;;21.06;53.20;100489.44;5080127;27;45401;-58
2021/07/12 03:32:04;;;;;;;;;4.75;4.50;;;;;21.04;53.27;100479.81;5081015;28;45218;-58
2021/07/12 03:34:31;;;;;;;;;4.00;4.00;;;;;20.99;53.39;100472.06;5080904;28;45207;-57
2021/07/12 03:36:59;;;;;;;;;3.00;3.00;;;;;20.98;53.43;100461.50;5079194;28;46044;-58
2021/07/12 03:39:25;;;;;;;;;3.00;3.00;;;;;20.92;53.60;100457.41;5080780;27;45260;-58
2021/07/12 03:41:51;;;;;;;;;5.25;5.00;;;;;20.91;54.15;100461.03;5080726;28;45174;-58
2021/07/12 03:44:17;;;;;;;;;7.00;4.50;;;;;20.81;53.98;100450.06;5080690;28;45180;-58
2021/07/12 03:46:44;;;;;;;;;3.75;3.75;;;;;20.89;54.00;100462.94;5080621;28;45227;-58
2021/07/12 03:49:11;;;;;;;;;3.50;3.50;;;;;20.87;53.67;100459.50;5080420;28;45299;-58
2021/07/12 03:51:37;;;;;;;;;4.50;4.00;;;;;20.85;53.96;100453.41;5080476;28;45268;-58
2021/07/12 03:54:03;;;;;;;;;3.25;3.00;;;;;20.84;53.91;100460.56;5080517;28;45303;-58
2021/07/12 03:56:28;;;;;;;;;4.00;3.00;;;;;20.83;53.62;100464.19;5080394;28;46981;-58
2021/07/12 03:58:54;;;;;;;;;2.75;2.75;;;;;20.83;53.70;100461.50;5075702;28;45369;-58
2021/07/12 04:01:20;;;;;;;;;5.25;3.75;;;;;20.81;53.62;100449.22;5070622;28;45504;-58
2021/07/12 04:03:47;;;;;;;;;6.50;5.50;;;;;20.80;53.75;100440.31;5080243;28;45483;-58
2021/07/12 04:06:12;;;;;;;;;6.00;4.50;;;;;20.78;53.37;100434.25;5080029;28;46334;-59
2021/07/12 04:08:37;;;;;;;;;4.25;3.50;;;;;20.79;53.72;100433.25;5080224;28;45195;-58
2021/07/12 04:11:03;;;;;;;;;3.50;3.00;;;;;20.76;54.10;100430.78;5080539;28;45481;-58
2021/07/12 04:13:29;;;;;;;;;4.75;4.75;;;;;20.77;53.74;100436.03;5080211;28;45423;-58
2021/07/12 04:15:54;;;;;;;;;3.00;3.00;;;;;20.75;53.65;100442.41;5080445;28;45221;-59
2021/07/12 04:18:19;;;;;;;;;4.50;3.75;;;;;20.75;54.14;100447.75;5080173;28;45224;-58
2021/07/12 04:20:47;;;;;;;;;3.25;3.25;;;;;20.70;54.32;100445.34;5096491;27;45692;-58
2021/07/12 04:23:12;;;;;;;;;3.25;3.25;;;;;20.71;54.08;100447.09;5100547;27;45326;-58
2021/07/12 04:25:38;;;;;;;;;3.75;3.75;;;;;20.69;53.68;100446.31;5100637;27;45933;-58
2021/07/12 04:28:03;;;;;;;;;4.50;4.50;;;;;20.68;54.02;100446.38;5078714;28;45375;-58
2021/07/12 04:30:29;;;;;;;;;4.00;4.00;;;;;20.67;54.42;100442.03;5090711;27;45363;-58
2021/07/12 04:32:54;;;;;;;;;3.50;3.50;;;;;20.66;54.35;100435.81;5100574;27;45497;-58
2021/07/12 04:35:20;;;;;;;;;5.75;3.25;;;;;20.65;53.97;100431.41;5100740;27;45415;-58
2021/07/12 04:37:45;;;;;;;;;4.00;4.00;;;;;20.65;53.89;100428.75;5100066;27;45194;-58
2021/07/12 04:40:11;;;;;;;;;7.00;5.00;;;;;20.63;54.25;100431.50;5100532;27;45284;-59
2021/07/12 04:42:37;;;;;;;;;3.75;3.00;;;;;20.61;54.45;100433.41;5101581;27;45498;-58
2021/07/12 04:45:04;;;;;;;;;4.50;4.50;;;;;20.63;54.13;100434.19;5104197;27;46196;-58
2021/07/12 04:47:30;;;;;;;;;4.00;4.00;;;;;20.64;54.71;100435.06;5103900;27;45287;-59
2021/07/12 04:49:56;;;;;;;;;5.00;5.00;;;;;20.62;54.14;100437.78;5104126;27;45339;-58
2021/07/12 04:52:21;;;;;;;;;4.50;3.50;;;;;20.62;54.50;100442.28;5103567;27;45347;-58
2021/07/12 04:54:47;;;;;;;;;3.75;3.75;;;;;20.61;54.63;100440.56;5103880;27;45989;-58
2021/07/12 04:57:12;;;;;;;;;6.25;5.25;;;;;20.60;54.65;100444.19;5085314;27;45369;-58
2021/07/12 04:59:40;;;;;;;;;4.00;4.00;;;;;20.59;54.17;100450.47;5104300;27;45327;-58
2021/07/12 05:02:10;;;;;;;;;3.00;3.00;;;;;20.58;54.52;100448.78;5103583;27;45497;-58
2021/07/12 05:04:38;;;;;;;;;4.00;4.00;;;;;20.54;54.23;100436.53;5103856;27;46188;-58
2021/07/12 05:07:05;;;;;;;;;3.25;3.00;;;;;20.56;54.21;100437.31;5103466;27;45329;-58
2021/07/12 05:09:31;;;;;;;;;2.00;2.00;;;;;20.57;54.42;100449.72;5103783;27;45231;-59
2021/07/12 05:11:57;;;;;;;;;3.75;3.75;;;;;20.57;54.69;100444.38;5103168;27;45259;-58
2021/07/12 05:14:24;;;;;;;;;3.00;3.00;;;;;20.57;54.57;100442.56;5103562;27;46061;-58
2021/07/12 05:16:51;;;;;;;;;4.00;4.00;;;;;20.58;54.73;100446.09;5081592;28;45243;-58
2021/07/12 05:19:16;;;;;;;;;4.50;4.50;;;;;20.58;54.81;100448.78;5093849;27;45465;-58
2021/07/12 05:21:42;;;;;;;;;4.00;3.00;;;;;20.57;54.79;100450.56;5081287;28;46180;-60
2021/07/12 05:24:08;;;;;;;;;6.25;5.75;;;;;20.55;54.39;100435.59;5094051;27;46203;-58
2021/07/12 05:26:33;;;;;;;;;3.75;3.50;;;;;20.53;54.47;100437.53;5103292;27;45393;-58
2021/07/12 05:28:59;;;;;;;;;5.00;5.00;;;;;20.48;54.32;100423.56;5089341;27;45262;-59
2021/07/12 05:31:24;;;;;;;;;3.25;3.25;;;;;20.56;54.34;100435.50;5100608;27;45519;-58
2021/07/12 05:33:50;;;;;;;;;3.25;3.25;;;;;20.53;55.01;100432.19;5103421;27;45272;-58
2021/07/12 05:36:16;;;;;;;;;4.25;4.25;;;;;20.51;54.64;100428.75;5102863;27;45295;-58
2021/07/12 05:38:41;;;;;;;;;6.00;4.75;;;;;20.51;54.61;100434.09;5103431;27;45451;-58
2021/07/12 05:41:07;;;;;;;;;4.00;3.25;;;;;20.48;55.07;100434.25;5103076;27;45395;-58
2021/07/12 05:43:32;;;;;;;;;4.50;4.50;;;;;20.48;55.19;100439.59;5081191;28;46079;-58
2021/07/12 05:45:57;;;;;;;;;3.50;3.50;;;;;20.45;54.88;100437.97;5078452;28;45205;-58
2021/07/12 05:48:23;;;;;;;;;4.50;4.00;;;;;20.44;54.75;100436.28;5093552;27;45303;-58
2021/07/12 05:50:48;;;;;;;;;5.25;4.00;;;;;20.44;55.16;100444.28;5102609;27;45417;-58
2021/07/12 05:53:15;;;;;;;;;4.75;4.25;;;;;20.38;55.24;100429.47;5080831;28;47229;-58
2021/07/12 05:55:41;;;;;;;;;4.00;4.00;;;;;20.41;55.17;100428.44;5100427;27;45401;-57
2021/07/12 05:58:07;;;;;;;;;3.00;3.00;;;;;20.39;55.47;100431.19;5102928;27;45450;-61
2021/07/12 06:00:32;;;;;;;;;4.75;4.75;;;;;20.38;55.12;100429.47;5102707;27;45319;-58
2021/07/12 06:02:57;;;;;;;;;8.00;6.25;;;;;20.37;55.53;100427.75;5103065;27;46367;-58
2021/07/12 06:05:23;;;;;;;;;6.50;4.50;;;;;20.35;55.37;100420.78;5080931;28;45280;-58
2021/07/12 06:07:48;;;;;;;;;4.25;4.25;;;;;20.33;55.27;100420.06;5071263;28;45469;-58
2021/07/12 06:10:14;;;;;;;;;5.00;4.00;;;;;20.35;55.11;100418.13;5081304;27;45730;-58
2021/07/12 06:12:40;;;;;;;;;3.75;3.75;;;;;20.36;55.13;100419.84;5102671;27;45437;-57
2021/07/12 06:15:06;;;;;;;;;3.75;3.75;;;;;20.33;55.10;100420.06;5102574;27;45229;-57
2021/07/12 06:17:32;;;;;;;;;2.00;2.00;;;;;20.30;55.37;100416.59;5102671;27;45279;-58
2021/07/12 06:19:58;;;;;;;;;5.50;5.00;;;;;20.26;55.97;100414.19;5102148;27;45393;-58
2021/07/12 06:22:23;;;;;;;;;3.75;3.75;;;;;20.27;55.55;100416.78;5102081;27;45330;-58
2021/07/12 06:24:48;;;;;;;;;5.75;5.75;;;;;20.26;55.52;100417.75;5102498;27;45239;-58
2021/07/12 06:27:15;;;;;;;;;2.75;2.75;;;;;20.25;55.60;100429.38;5102578;27;45395;-58
2021/07/12 06:29:41;;;;;;;;;5.25;4.25;;;;;20.24;56.07;100416.97;5083837;27;45324;-57
2021/07/12 06:32:06;;;;;;;;;6.00;5.00;;;;;20.21;55.50;100416.28;5102060;27;46054;-59
2021/07/12 06:34:32;;;;;;;;;4.00;4.00;;;;;20.21;55.75;100421.63;5102202;27;45394;-59
2021/07/12 06:36:57;;;;;;;;;6.00;6.00;;;;;20.21;56.14;100414.47;5080358;28;45442;-58
2021/07/12 06:39:22;;;;;;;;;5.00;5.00;;;;;20.19;55.63;100411.06;5098099;27;45307;-59
2021/07/12 06:41:48;;;;;;;;;5.75;5.25;;;;;20.18;55.80;100392.47;5101988;27;45417;-59
2021/07/12 06:44:13;;;;;;;;;5.75;4.25;;;;;20.21;56.32;100400.28;5101981;27;45421;-59
2021/07/12 06:46:38;;;;;;;;;7.50;6.75;;;;;20.19;55.85;100384.38;5102233;27;45707;-59
2021/07/12 06:49:04;;;;;;;;;6.25;6.00;;;;;20.20;56.35;100375.44;5101945;27;45383;-60
2021/07/12 06:51:29;;;;;;;;;7.00;5.75;;;;;20.20;56.36;100378.09;5101711;27;45433;-60
2021/07/12 06:53:55;;;;;;;;;6.00;6.00;;;;;20.21;56.06;100378.94;5101870;27;45289;-59
2021/07/12 06:56:21;;;;;;;;;5.00;4.75;;;;;20.19;56.27;100372.84;5102079;27;45995;-60
2021/07/12 06:58:46;;;;;;;;;6.50;4.50;;;;;20.21;56.00;100385.13;5101704;27;45197;-60
2021/07/12 07:01:12;;;;;;;;;5.25;5.25;;;;;20.23;56.38;100379.72;5101736;27;45974;-60
2021/07/12 07:03:37;;;;;;;;;6.75;6.00;;;;;20.19;55.93;100380.84;5101544;27;45326;-60
2021/07/12 07:06:02;;;;;;;;;7.00;6.50;;;;;20.22;56.48;100397.53;5100584;27;45241;-61
2021/07/12 07:08:28;;;;;;;;;8.00;6.00;;;;;20.21;56.63;100398.47;5101632;27;45532;-59
2021/07/12 07:10:53;;;;;;;;;7.00;6.00;;;;;20.20;56.73;100390.56;5101583;27;45202;-59
2021/07/12 07:13:18;;;;;;;;;6.75;5.25;;;;;20.20;56.28;100398.56;5101375;27;45411;-59
2021/07/12 07:15:44;;;;;;;;;6.75;6.75;;;;;20.17;56.61;100394.28;5083357;27;45211;-59
2021/07/12 07:18:10;;;;;;;;;8.75;7.75;;;;;20.17;57.02;100388.09;5101474;27;45223;-59
2021/07/12 07:20:35;;;;;;;;;6.25;6.25;;;;;20.07;56.76;100371.78;5101298;27;46121;-59
2021/07/12 07:23:01;;;;;;;;;7.00;6.25;;;;;20.16;57.00;100392.56;5101167;27;45259;-60
2021/07/12 07:25:26;;;;;;;;;6.00;6.00;;;;;20.14;56.74;100395.31;5101577;27;45440;-59
2021/07/12 07:27:52;;;;;;;;;6.50;6.50;;;;;20.11;57.26;100410.63;5101138;27;45432;-59
2021/07/12 07:30:18;;;;;;;;;6.25;6.25;;;;;20.10;56.66;100409.78;5101352;27;46157;-60
2021/07/12 07:32:43;;;;;;;;;8.00;7.50;;;;;20.11;56.96;100411.53;5101187;27;45393;-60
2021/07/12 07:35:10;;;;;;;;;8.50;6.00;;;;;20.13;57.02;100424.75;5101628;27;45461;-59
2021/07/12 07:37:36;;;;;;;;;8.00;7.00;;;;;20.14;57.31;100406.00;5100823;27;45367;-59
2021/07/12 07:40:04;;;;;;;;;6.00;6.00;;;;;20.14;57.19;100394.47;5101017;27;47140;-59
2021/07/12 07:42:29;;;;;;;;;6.75;6.00;;;;;20.14;57.36;100389.97;5100716;27;45252;-59
2021/07/12 07:44:57;;;;;;;;;6.50;6.50;;;;;20.18;56.90;100409.34;5101386;27;45934;-59
2021/07/12 07:47:23;;;;;;;;;8.75;6.75;;;;;20.19;57.11;100418.19;5101070;27;46350;-60
2021/07/12 07:49:49;;;;;;;;;6.25;6.25;;;;;20.18;57.46;100427.16;5100814;27;46270;-59
2021/07/12 07:52:15;;;;;;;;;6.00;6.00;;;;;20.16;57.54;100429.03;5082324;27;45326;-59
2021/07/12 07:54:40;;;;;;;;;5.50;5.50;;;;;20.10;57.23;100422.25;5101116;27;45307;-59
2021/07/12 07:57:06;;;;;;;;;9.50;9.00;;;;;20.13;57.68;100422.09;5080877;27;45541;-59
2021/07/12 07:59:31;;;;;;;;;9.25;8.00;;;;;20.09;57.60;100420.56;5100997;27;45480;-59
2021/07/12 08:01:56;;;;;;;;;9.00;8.00;;;;;20.09;57.83;100426.75;5100669;27;45228;-59
2021/07/12 08:04:22;;;;;;;;;8.25;7.50;;;;;20.08;58.03;100433.03;5101138;27;45276;-59
2021/07/12 08:06:47;;;;;;;;;10.50;7.25;;;;;20.08;57.63;100424.19;5080354;27;45477;-60
2021/07/12 08:09:12;;;;;;;;;7.50;5.75;;;;;20.05;57.70;100414.53;5100716;27;46046;-60
2021/07/12 08:11:38;;;;;;;;;9.00;8.00;;;;;20.06;57.70;100418.94;5100482;27;45237;-60
2021/07/12 08:14:03;;;;;;;;;8.75;8.75;;;;;20.08;57.76;100416.16;5082514;27;45355;-60
2021/07/12 08:16:29;;;;;;;;;6.75;6.75;;;;;20.09;58.13;100415.22;5082079;27;45515;-60
2021/07/12 08:18:55;;;;;;;;;8.50;8.25;;;;;20.10;58.18;100414.25;5100708;27;45946;-60
2021/07/12 08:21:21;;;;;;;;;7.00;7.00;;;;;20.12;58.17;100407.03;5081866;27;45739;-60
2021/07/12 08:23:46;;;;;;;;;9.25;8.25;;;;;20.15;58.21;100417.53;5100692;27;45334;-60
2021/07/12 08:26:13;;;;;;;;;9.50;8.00;;;;;20.17;57.95;100418.28;5100506;27;45496;-60
2021/07/12 08:28:39;;;;;;;;;9.75;9.00;;;;;20.21;58.29;100416.28;5100282;27;46151;-61
2021/07/12 08:31:05;;;;;;;;;13.00;10.00;;;;;20.24;58.21;100421.47;5100376;27;45403;-60
2021/07/12 08:33:31;;;;;;;;;12.25;11.25;;;;;20.30;58.72;100426.41;5100547;27;45267;-60
2021/07/12 08:35:57;;;;;;;;;11.75;8.50;;;;;20.30;58.75;100432.63;5100109;27;45426;-60
2021/07/12 08:38:22;;;;;;;;;7.50;7.25;;;;;20.33;58.37;100436.06;5100443;27;46076;-60
2021/07/12 08:40:49;;;;;;;;;11.75;9.50;;;;;20.37;59.01;100433.09;5100239;27;45220;-60
2021/07/12 08:43:16;;;;;;;;;14.75;14.00;;;;;20.41;58.77;100437.28;5100243;27;45283;-60
2021/07/12 08:45:41;;;;;;;;;13.75;13.75;;;;;20.45;58.93;100436.16;5099989;27;45323;-61
2021/07/12 08:48:07;;;;;;;;;15.50;11.75;;;;;20.49;58.92;100443.97;5100117;27;47062;-61
2021/07/12 08:50:32;;;;;;;;;14.75;13.00;;;;;20.51;58.99;100431.41;5099915;27;45389;-61
2021/07/12 08:52:58;;;;;;;;;10.75;10.75;;;;;20.56;59.09;100432.00;5082025;27;45427;-61
2021/07/12 08:55:24;;;;;;;;;14.75;14.25;;;;;20.59;58.56;100432.66;5078979;27;45642;-61
2021/07/12 08:58:08;;;;;;;;;15.50;13.00;;;;;20.62;58.51;100428.94;5100144;27;45892;-61
2021/07/12 09:01:03;;;;;;;;;12.75;11.25;;;;;20.63;59.10;100433.34;5099809;27;45292;-61
2021/07/12 09:03:32;;;;;;;;;12.75;11.75;;;;;20.66;59.04;100427.78;5092789;27;45400;-61
2021/07/12 09:05:58;;;;;;;;;12.50;10.75;;;;;20.69;58.74;100440.97;5099814;27;45322;-61
2021/07/12 09:08:43;;;;;;;;;9.25;9.00;;;;;20.70;58.60;100447.16;5099780;27;46908;-61
2021/07/12 09:11:14;;;;;;;;;10.50;10.25;;;;;20.72;58.50;100440.81;5099805;27;45418;-61
2021/07/12 09:13:51;;;;;;;;;10.00;9.00;;;;;20.74;59.08;100430.91;5099935;27;45331;-61
2021/07/12 09:16:42;;;;;;;;;9.00;9.00;;;;;20.73;58.44;100437.19;5099792;27;45405;-61
2021/07/12 09:19:22;;;;;;;;;5.00;5.00;;;;;20.76;58.94;100454.81;5081244;27;47385;-61
2021/07/12 09:22:11;;;;;;;;;10.00;7.00;;;;;20.75;58.99;100461.13;5099392;27;45282;-61
2021/07/12 09:24:56;;;;;;;;;10.75;9.25;;;;;20.75;58.62;100464.66;5099792;27;45299;-61
2021/07/12 09:27:27;;;;;;;;;14.25;10.75;;;;;20.76;59.17;100455.66;5099609;27;45275;-59
2021/07/12 09:30:14;;;;;;;;;10.25;9.25;;;;;20.76;59.32;100463.69;5102703;27;45383;-60
2021/07/12 09:32:46;;;;;;;;;9.50;9.00;;;;;20.74;58.69;100462.06;5102580;27;45298;-60
2021/07/12 09:35:19;;;;;;;;;9.50;8.00;;;;;20.77;58.58;100467.22;5103382;27;45328;-60
2021/07/12 09:37:54;;;;;;;;;11.25;8.75;;;;;20.66;59.21;100459.81;5102718;27;45315;-61
2021/07/12 09:40:20;;;;;;;;;10.25;9.25;;;;;20.75;59.44;100475.34;5103008;27;45318;-61
2021/07/12 09:42:50;;;;;;;;;14.00;12.25;;;;;20.76;58.88;100477.03;5102927;27;45461;-61
2021/07/12 09:45:23;;;;;;;;;19.75;16.50;;;;;20.77;59.12;100470.75;5103193;27;45444;-62
2021/07/12 09:47:51;;;;;;;;;18.50;16.50;;;;;20.78;58.73;100474.28;5102749;27;45513;-61
2021/07/12 09:50:22;;;;;;;;;23.50;19.25;;;;;20.80;59.31;100475.03;5080920;28;47825;-61
2021/07/12 09:52:52;;;;;;;;;18.00;17.25;;;;;20.82;59.49;100490.94;5101988;27;45463;-61
2021/07/12 09:55:24;;;;;;;;;14.50;13.25;;;;;20.80;59.49;100488.38;5102780;27;45279;-61
2021/07/12 09:58:19;;;;;;;;;16.50;16.00;;;;;20.80;59.58;100480.38;5102741;27;45193;-61
2021/07/12 10:01:05;;;;;;;;;19.00;15.00;;;;;20.80;59.07;100476.84;5102423;27;45270;-61
2021/07/12 10:03:33;;;;;;;;;14.50;13.75;;;;;20.80;59.18;100472.38;5084119;27;45403;-61
2021/07/12 10:06:00;;;;;;;;;12.50;12.50;;;;;20.80;59.00;100480.38;5102617;27;45318;-60
2021/07/12 10:08:25;;;;;;;;;8.75;8.75;;;;;20.78;59.54;100482.31;5102467;27;45366;-61
2021/07/12 10:10:51;;;;;;;;;8.00;6.00;;;;;20.82;59.56;100483.81;5102361;27;45223;-61
2021/07/12 10:13:17;;;;;;;;;12.00;10.25;;;;;20.84;59.37;100486.38;5102482;27;45207;-60
2021/07/12 10:15:43;;;;;;;;;10.00;9.00;;;;;20.86;59.25;100482.66;5102891;27;45307;-61
2021/07/12 10:18:08;;;;;;;;;10.50;8.50;;;;;20.91;59.09;100483.25;5102454;27;45352;-61
2021/07/12 10:20:35;;;;;;;;;19.50;16.50;;;;;20.94;59.65;100475.06;5101885;27;45334;-61
2021/07/12 10:23:04;;;;;;;;;21.50;20.00;;;;;21.01;59.64;100475.53;5102056;27;45321;-60
2021/07/12 10:25:32;;;;;;;;;18.00;17.50;;;;;21.07;60.09;100474.28;5102522;27;45359;-60
2021/07/12 10:28:06;;;;;;;;;73.00;60.25;;;;;21.14;59.89;100469.41;5101999;27;45264;-60
2021/07/12 10:30:35;;;;;;;;;77.00;68.33;;;;;21.22;60.19;100462.63;5080320;28;46155;-60
2021/07/12 10:33:09;;;;;;;;;29.25;25.50;;;;;21.30;60.09;100466.66;5099065;27;45311;-60
2021/07/12 10:35:39;;;;;;;;;78.33;69.67;;;;;21.41;60.19;100465.00;5102008;27;45230;-60
2021/07/12 10:38:05;;;;;;;;;16.25;15.50;;;;;21.49;59.90;100460.97;5100762;27;45463;-61
2021/07/12 10:40:49;;;;;;;;;14.00;12.75;;;;;21.62;60.10;100474.44;5101851;27;46176;-61
2021/07/12 10:43:42;;;;;;;;;11.50;10.00;;;;;21.71;60.25;100464.00;5083547;27;45393;-61
2021/07/12 10:46:31;;;;;;;;;13.25;13.00;;;;;21.82;60.07;100465.09;5101937;27;45455;-60
2021/07/12 10:49:19;;;;;;;;;13.75;11.75;;;;;21.95;60.56;100455.31;5101572;27;45430;-61
2021/07/12 10:51:44;;;;;;;;;15.00;13.25;;;;;22.13;60.42;100450.53;5101509;27;46272;-61
2021/07/12 10:54:11;;;;;;;;;15.50;14.50;;;;;22.28;59.84;100453.16;5101713;27;45154;-61
2021/07/12 10:57:15;;;;;;;;;13.50;11.25;;;;;22.46;60.40;100449.22;5102067;27;45492;-60
2021/07/12 10:59:41;;;;;;;;;13.25;13.25;;;;;22.60;60.03;100437.56;5069992;27;45352;-61
2021/07/12 11:02:09;;;;;;;;;14.25;14.25;;;;;22.82;60.49;100439.59;5101403;27;45504;-61
2021/07/12 11:04:42;;;;;;;;;12.75;12.75;;;;;23.05;60.58;100427.22;5101790;27;45418;-61
2021/07/12 11:07:14;;;;;;;;;13.50;12.00;;;;;23.27;60.42;100433.78;5101402;27;45302;-61
2021/07/12 11:10:00;;;;;;;;;11.50;10.50;;;;;23.49;60.29;100426.84;5101725;27;45445;-61
2021/07/12 11:12:36;;;;;;;;;7.50;5.75;;;;;23.65;60.23;100422.06;5101253;27;45418;-61
2021/07/12 11:15:18;;;;;;;;;8.75;7.25;;;;;23.80;59.81;100421.91;5101400;27;45346;-60
2021/07/12 11:17:56;;;;;;;;;7.25;7.25;;;;;23.94;59.98;100418.19;5101549;27;45223;-61
2021/07/12 11:20:48;;;;;;;;;7.75;6.25;;;;;24.09;59.46;100411.66;5101303;27;45314;-60
2021/07/12 11:23:53;;;;;;;;;8.00;4.75;;;;;24.15;59.40;100416.56;5101119;27;45318;-61
2021/07/12 11:26:23;;;;;;;;;9.00;7.75;;;;;24.21;59.08;100412.53;5082813;27;45236;-60
2021/07/12 11:28:54;;;;;;;;;8.00;6.75;;;;;24.25;58.60;100413.16;5101292;27;45403;-60
2021/07/12 11:31:49;;;;;;;;;9.75;6.00;;;;;24.31;58.63;100408.19;5101271;27;45576;-61